Time;durP1;ratioP1;P1;durP2;ratioP2;P2;SDS_P1;SDS_P2;PMS_P1;PMS_P2;Temp;Humidity;BMP_temperature;BMP_pressure;BME280_temperature;BME280_humidity;BME280_pressure;Samples;Min_cycle;Max_cycle;Signal;HPM_P1;HPM_P2
2021/03/29 00:00:19;;;;;;;19.52;7.95;;;10.30;99.70;;;;;;5056825;28;20025;-49
2021/03/29 00:02:47;;;;;;;15.60;7.65;;;10.50;99.90;;;;;;5006065;28;20045;-49
2021/03/29 00:05:15;;;;;;;17.88;7.75;;;10.60;98.90;;;;;;5056737;28;20031;-50
2021/03/29 00:07:43;;;;;;;11.80;6.85;;;10.70;98.50;;;;;;5056711;28;20017;-49
2021/03/29 00:10:11;;;;;;;12.98;5.80;;;10.80;98.30;;;;;;5056643;28;20362;-50
2021/03/29 00:12:40;;;;;;;12.50;7.13;;;10.90;99.20;;;;;;4972339;28;20041;-49
2021/03/29 00:15:09;;;;;;;13.35;6.57;;;10.90;99.90;;;;;;5056449;28;20069;-49
2021/03/29 00:17:38;;;;;;;12.48;6.78;;;10.90;99.90;;;;;;4988990;28;20110;-50
2021/03/29 00:20:11;;;;;;;12.77;7.32;;;10.90;99.90;;;;;;5056377;28;20036;-49
2021/03/29 00:22:37;;;;;;;12.48;6.70;;;10.90;99.90;;;;;;5004170;28;20389;-50
2021/03/29 00:25:04;;;;;;;10.02;5.88;;;10.90;99.90;;;;;;5056617;28;20490;-49
2021/03/29 00:27:30;;;;;;;12.85;6.07;;;10.90;99.50;;;;;;4988310;28;20041;-51
2021/03/29 00:29:56;;;;;;;13.70;6.40;;;10.90;99.10;;;;;;5056294;28;20040;-49
2021/03/29 00:32:22;;;;;;;12.45;6.60;;;10.80;99.10;;;;;;5055873;28;20036;-49
2021/03/29 00:34:48;;;;;;;10.00;5.35;;;10.70;99.50;;;;;;5055514;28;20037;-50
2021/03/29 00:37:14;;;;;;;8.32;5.68;;;10.70;99.80;;;;;;5056197;28;20041;-52
2021/03/29 00:39:42;;;;;;;9.93;5.65;;;10.70;99.90;;;;;;5021121;28;20486;-50
2021/03/29 00:42:09;;;;;;;10.40;5.95;;;10.70;99.90;;;;;;5055996;28;20059;-50
2021/03/29 00:44:35;;;;;;;10.50;5.25;;;10.50;99.70;;;;;;5055777;28;20530;-51
2021/03/29 00:47:02;;;;;;;9.23;4.55;;;10.40;99.60;;;;;;5004413;28;20040;-50
2021/03/29 00:49:29;;;;;;;9.85;5.10;;;10.40;99.30;;;;;;5020606;28;20095;-52
2021/03/29 00:51:55;;;;;;;11.85;5.05;;;10.40;99.50;;;;;;5055829;28;20025;-52
2021/03/29 00:54:22;;;;;;;8.43;4.22;;;10.40;99.80;;;;;;5055980;28;20032;-50
2021/03/29 00:56:49;;;;;;;8.52;4.50;;;10.30;99.60;;;;;;5055637;28;20025;-50
2021/03/29 00:59:16;;;;;;;9.32;4.65;;;10.20;99.20;;;;;;5056011;28;20037;-50
2021/03/29 01:01:45;;;;;;;11.35;4.70;;;10.20;99.20;;;;;;5055750;28;20112;-49
2021/03/29 01:04:11;;;;;;;8.20;4.18;;;10.20;99.10;;;;;;5055461;28;20096;-50
2021/03/29 01:06:41;;;;;;;6.88;4.35;;;10.20;99.30;;;;;;4987665;28;20372;-50
2021/03/29 01:09:19;;;;;;;7.30;4.55;;;10.20;99.20;;;;;;5020504;28;20041;-50
2021/03/29 01:11:52;;;;;;;6.47;3.70;;;10.20;99.40;;;;;;5055514;28;20029;-50
2021/03/29 01:14:27;;;;;;;7.70;3.97;;;9.90;99.60;;;;;;4993689;28;20077;-51
2021/03/29 01:17:20;;;;;;;11.18;4.72;;;9.70;99.90;;;;;;4993929;28;20117;-51
2021/03/29 01:19:46;;;;;;;7.20;5.13;;;9.50;99.90;;;;;;4994001;28;20038;-50
2021/03/29 01:22:18;;;;;;;8.05;4.65;;;9.30;99.90;;;;;;4993785;28;20034;-51
2021/03/29 01:24:49;;;;;;;7.57;4.35;;;9.40;99.90;;;;;;4993782;28;20623;-50
2021/03/29 01:27:17;;;;;;;12.57;5.55;;;9.50;99.90;;;;;;4961113;28;20030;-51
2021/03/29 01:29:44;;;;;;;9.57;4.65;;;9.50;99.90;;;;;;4993891;28;20089;-50
2021/03/29 01:32:12;;;;;;;11.23;5.65;;;9.40;99.90;;;;;;4993609;28;20537;-51
2021/03/29 01:34:39;;;;;;;9.50;5.00;;;9.40;99.90;;;;;;4992126;28;20045;-50
2021/03/29 01:37:07;;;;;;;10.15;4.30;;;9.40;99.90;;;;;;4968803;28;20061;-50
2021/03/29 01:39:34;;;;;;;12.18;5.38;;;9.40;99.90;;;;;;4990032;28;20046;-50
2021/03/29 01:42:01;;;;;;;8.73;4.78;;;9.40;99.90;;;;;;4973959;28;20078;-50
2021/03/29 01:44:27;;;;;;;10.25;5.45;;;9.30;99.90;;;;;;4979883;28;20049;-50
2021/03/29 01:46:54;;;;;;;6.85;4.72;;;9.10;99.90;;;;;;5015063;28;20033;-50
2021/03/29 01:49:21;;;;;;;7.68;4.28;;;;;;;;;;5015204;28;20056;-50
2021/03/29 01:51:49;;;;;;;8.93;4.28;;;8.80;99.90;;;;;;5015051;28;20477;-50
2021/03/29 01:54:17;;;;;;;6.70;3.90;;;8.50;99.90;;;;;;5014742;28;20025;-50
2021/03/29 01:56:42;;;;;;;9.82;4.82;;;8.50;99.90;;;;;;5012317;28;20057;-50
2021/03/29 01:59:09;;;;;;;9.85;4.90;;;8.50;99.90;;;;;;5015046;28;20034;-49
2021/03/29 02:01:35;;;;;;;9.82;5.15;;;8.50;99.90;;;;;;5012785;28;20042;-50
2021/03/29 02:04:03;;;;;;;6.85;4.03;;;8.30;99.90;;;;;;5014698;28;20041;-50
2021/03/29 02:06:29;;;;;;;8.80;4.90;;;;;;;;;;5014898;28;20160;-51
2021/03/29 02:08:56;;;;;;;7.70;4.35;;;8.10;99.90;;;;;;5014566;28;20045;-51
2021/03/29 02:11:23;;;;;;;8.25;4.45;;;8.20;99.90;;;;;;5014641;28;20040;-52
2021/03/29 02:13:53;;;;;;;6.43;3.92;;;8.10;99.90;;;;;;5012746;28;20092;-49
2021/03/29 02:16:20;;;;;;;9.85;5.20;;;7.80;99.90;;;;;;5014163;28;20485;-50
2021/03/29 02:18:49;;;;;;;13.63;6.38;;;7.70;99.90;;;;;;5014426;28;20125;-49
2021/03/29 02:21:20;;;;;;;13.35;6.38;;;7.40;99.90;;;;;;5014752;28;20040;-50
2021/03/29 02:23:50;;;;;;;10.48;4.57;;;7.50;99.90;;;;;;5014793;28;20026;-50
2021/03/29 02:26:19;;;;;;;11.40;4.50;;;7.30;99.90;;;;;;5014924;28;20032;-52
2021/03/29 02:28:46;;;;;;;7.35;4.35;;;7.40;99.90;;;;;;5015251;28;20022;-50
2021/03/29 02:31:13;;;;;;;7.45;3.92;;;7.50;99.90;;;;;;5014515;28;20026;-50
2021/03/29 02:33:41;;;;;;;7.40;4.57;;;7.30;99.90;;;;;;5014323;28;20069;-50
2021/03/29 02:36:07;;;;;;;6.80;3.60;;;7.40;99.90;;;;;;5014246;28;20113;-51
2021/03/29 02:38:34;;;;;;;5.90;4.13;;;7.40;99.90;;;;;;4979652;28;20046;-50
2021/03/29 02:41:00;;;;;;;6.88;3.50;;;7.10;99.90;;;;;;5011302;28;20030;-49
2021/03/29 02:43:27;;;;;;;7.00;3.85;;;7.00;99.90;;;;;;4964304;28;20037;-49
2021/03/29 02:45:56;;;;;;;7.78;4.00;;;7.00;99.90;;;;;;5033823;28;20025;-50
2021/03/29 02:48:28;;;;;;;10.95;4.00;;;7.10;99.90;;;;;;5033698;28;20104;-50
2021/03/29 02:50:57;;;;;;;9.07;4.93;;;7.10;99.90;;;;;;5033991;28;20026;-50
2021/03/29 02:53:26;;;;;;;8.38;4.53;;;6.90;99.90;;;;;;5045254;28;20048;-50
2021/03/29 02:55:53;;;;;;;6.75;3.88;;;;;;;;;;5052436;28;20040;-50
2021/03/29 02:58:26;;;;;;;11.07;5.72;;;7.30;99.90;;;;;;5053256;28;20033;-50
2021/03/29 03:00:54;;;;;;;11.32;5.20;;;7.60;99.90;;;;;;5042721;28;20085;-50
2021/03/29 03:03:20;;;;;;;13.77;5.25;;;7.70;99.90;;;;;;5052552;28;20032;-50
2021/03/29 03:05:46;;;;;;;13.23;5.32;;;7.70;99.90;;;;;;5052038;28;20161;-50
2021/03/29 03:08:13;;;;;;;9.38;4.53;;;7.90;99.90;;;;;;5052150;28;20476;-50
2021/03/29 03:10:40;;;;;;;8.43;4.70;;;8.00;99.90;;;;;;5002079;28;20120;-50
2021/03/29 03:13:07;;;;;;;8.75;5.10;;;8.10;99.90;;;;;;5018206;28;20037;-49
2021/03/29 03:15:35;;;;;;;8.27;4.00;;;8.10;99.90;;;;;;5001709;28;20382;-50
2021/03/29 03:18:03;;;;;;;8.75;4.30;;;8.20;99.90;;;;;;5053154;28;20124;-51
2021/03/29 03:20:31;;;;;;;9.85;4.03;;;8.20;99.90;;;;;;5052532;28;20487;-50
2021/03/29 03:22:59;;;;;;;10.60;4.70;;;8.20;99.90;;;;;;5050776;28;20182;-49
2021/03/29 03:25:37;;;;;;;9.43;3.92;;;8.20;99.90;;;;;;5053006;28;20480;-50
2021/03/29 03:28:06;;;;;;;7.45;3.72;;;8.20;99.90;;;;;;5053024;28;20036;-50
2021/03/29 03:30:35;;;;;;;10.18;5.35;;;8.10;99.90;;;;;;5052820;28;20037;-50
2021/03/29 03:33:03;;;;;;;8.70;4.80;;;7.90;99.90;;;;;;5053206;28;20120;-49
2021/03/29 03:35:29;;;;;;;10.80;5.40;;;7.80;99.90;;;;;;5001471;28;20056;-50
2021/03/29 03:38:18;;;;;;;9.45;4.95;;;8.00;99.90;;;;;;5052893;28;20037;-49
2021/03/29 03:40:47;;;;;;;10.57;5.22;;;8.10;99.90;;;;;;5053237;28;20108;-50
2021/03/29 03:43:17;;;;;;;13.27;5.88;;;8.10;99.90;;;;;;5053115;28;20029;-50
2021/03/29 03:45:46;;;;;;;6.78;3.78;;;8.20;99.90;;;;;;5052931;28;20043;-49
2021/03/29 03:48:13;;;;;;;7.63;4.13;;;8.30;99.90;;;;;;5001687;28;20036;-50
2021/03/29 03:50:44;;;;;;;11.55;4.28;;;8.30;99.90;;;;;;5001322;28;20461;-50
2021/03/29 03:53:10;;;;;;;6.30;4.00;;;8.30;99.90;;;;;;5053153;28;20100;-50
2021/03/29 03:55:38;;;;;;;7.80;4.75;;;8.20;99.90;;;;;;5052989;28;20354;-51
2021/03/29 03:58:04;;;;;;;9.40;4.50;;;8.20;99.90;;;;;;5052952;28;20108;-50
2021/03/29 04:00:30;;;;;;;11.48;4.65;;;8.30;99.90;;;;;;5052747;28;20468;-49
2021/03/29 04:02:56;;;;;;;7.32;4.47;;;8.30;99.90;;;;;;5052782;28;20064;-49
2021/03/29 04:05:22;;;;;;;13.73;4.80;;;8.20;99.90;;;;;;5052795;28;20061;-49
2021/03/29 04:07:52;;;;;;;8.98;4.93;;;8.20;99.90;;;;;;5052731;28;20108;-50
2021/03/29 04:10:23;;;;;;;8.52;5.07;;;8.30;99.90;;;;;;5052786;28;20048;-51
2021/03/29 04:12:54;;;;;;;10.23;4.20;;;8.20;99.90;;;;;;5051659;28;20064;-49
2021/03/29 04:15:20;;;;;;;13.60;5.32;;;8.20;99.90;;;;;;5052412;28;20033;-50
2021/03/29 04:17:46;;;;;;;10.73;5.97;;;8.30;99.90;;;;;;5052856;28;20047;-50
2021/03/29 04:20:13;;;;;;;6.28;4.22;;;8.30;99.90;;;;;;5003937;28;20033;-49
2021/03/29 04:22:39;;;;;;;10.18;4.55;;;8.20;99.90;;;;;;5055181;28;20479;-50
2021/03/29 04:25:08;;;;;;;9.25;4.93;;;8.30;99.90;;;;;;5021273;28;20065;-49
2021/03/29 04:27:34;;;;;;;8.18;4.38;;;8.20;99.90;;;;;;5056459;28;20021;-50
2021/03/29 04:30:00;;;;;;;8.00;4.55;;;8.20;99.90;;;;;;5056249;28;20100;-50
2021/03/29 04:32:26;;;;;;;10.77;4.43;;;8.30;99.90;;;;;;5003183;28;20458;-50
2021/03/29 04:34:52;;;;;;;10.70;4.90;;;8.30;99.90;;;;;;5056319;28;20024;-49
2021/03/29 04:37:18;;;;;;;10.35;4.97;;;8.20;99.90;;;;;;5020922;28;20036;-50
2021/03/29 04:39:44;;;;;;;16.60;6.40;;;8.20;99.90;;;;;;5056128;28;20044;-49
2021/03/29 04:42:10;;;;;;;12.43;5.53;;;8.30;99.90;;;;;;5055946;28;20029;-50
2021/03/29 04:44:36;;;;;;;34.22;11.95;;;8.30;99.90;;;;;;5019859;28;20052;-49
2021/03/29 04:47:02;;;;;;;29.73;13.70;;;8.10;99.90;;;;;;5056123;28;20345;-49
2021/03/29 04:49:27;;;;;;;21.80;10.98;;;7.80;99.90;;;;;;5004721;28;20450;-49
2021/03/29 04:51:53;;;;;;;20.67;10.60;;;7.80;99.90;;;;;;5020456;28;20037;-50
2021/03/29 04:54:19;;;;;;;20.05;9.32;;;7.70;99.90;;;;;;5056023;28;20021;-50
2021/03/29 04:56:46;;;;;;;14.52;8.15;;;7.90;99.90;;;;;;5020633;28;20043;-49
2021/03/29 04:59:11;;;;;;;25.50;13.25;;;7.90;99.90;;;;;;5055850;28;20040;-50
2021/03/29 05:01:37;;;;;;;22.40;10.68;;;7.90;99.90;;;;;;5054536;28;20031;-50
2021/03/29 05:04:03;;;;;;;20.05;10.27;;;8.10;99.90;;;;;;5057106;28;20047;-54
2021/03/29 05:06:30;;;;;;;19.92;9.30;;;8.10;99.90;;;;;;5059111;28;20088;-50
2021/03/29 05:08:56;;;;;;;18.30;9.25;;;8.30;99.90;;;;;;5047302;28;20104;-54
2021/03/29 05:11:22;;;;;;;15.55;7.82;;;8.30;99.90;;;;;;5050929;28;20060;-50
2021/03/29 05:13:48;;;;;;;13.55;8.50;;;8.40;99.90;;;;;;5054445;28;20072;-51
2021/03/29 05:16:13;;;;;;;19.35;10.50;;;8.50;99.90;;;;;;5055005;28;20025;-50
2021/03/29 05:18:39;;;;;;;21.77;15.35;;;8.30;99.90;;;;;;5056035;28;20041;-49
2021/03/29 05:21:05;;;;;;;33.28;18.00;;;8.30;99.90;;;;;;5004409;28;20061;-50
2021/03/29 05:23:31;;;;;;;14.57;9.18;;;8.40;99.90;;;;;;5054524;28;20107;-50
2021/03/29 05:25:56;;;;;;;14.63;6.88;;;8.30;99.90;;;;;;5023767;28;20558;-50
2021/03/29 05:28:22;;;;;;;10.82;6.25;;;8.10;99.90;;;;;;5036124;28;20025;-50
2021/03/29 05:30:48;;;;;;;10.13;5.85;;;8.30;99.90;;;;;;5006056;28;20033;-52
2021/03/29 05:33:14;;;;;;;10.98;6.25;;;8.20;99.90;;;;;;4988761;28;20047;-51
2021/03/29 05:35:40;;;;;;;12.30;6.95;;;8.10;99.90;;;;;;5058773;28;20029;-51
2021/03/29 05:38:05;;;;;;;12.77;6.18;;;8.40;99.90;;;;;;5056230;28;20039;-58
2021/03/29 05:40:32;;;;;;;10.52;5.60;;;8.40;99.90;;;;;;5056488;28;20032;-50
2021/03/29 05:42:58;;;;;;;8.43;4.60;;;8.70;99.90;;;;;;5053727;28;20457;-54
2021/03/29 05:45:30;;;;;;;8.65;4.82;;;8.80;99.90;;;;;;5004736;28;20111;-50
2021/03/29 05:47:56;;;;;;;10.35;4.95;;;8.70;99.90;;;;;;5003611;28;20040;-51
2021/03/29 05:50:22;;;;;;;8.25;4.45;;;8.90;99.90;;;;;;5055086;28;20079;-51
2021/03/29 05:52:48;;;;;;;7.82;4.65;;;9.20;99.90;;;;;;5054724;28;20025;-52
2021/03/29 05:55:19;;;;;;;9.13;5.10;;;;;;;;;;5054994;28;20104;-49
2021/03/29 06:00:39;;;;;;;11.90;6.82;;;9.60;99.90;;;;;;5053938;28;20437;-48
2021/03/29 06:03:22;;;;;;;15.27;8.02;;;9.60;99.90;;;;;;4938006;29;20043;-51
2021/03/29 06:05:50;;;;;;;19.67;9.23;;;9.90;99.90;;;;;;4922216;29;20039;-50
2021/03/29 06:08:16;;;;;;;13.38;6.28;;;10.20;99.90;;;;;;4953891;29;20127;-52
2021/03/29 06:10:44;;;;;;;15.50;6.72;;;10.30;99.90;;;;;;4906600;29;20043;-50
2021/03/29 06:13:21;;;;;;;13.07;6.63;;;;;;;;;;4953994;29;20051;-51
2021/03/29 06:15:47;;;;;;;12.80;7.78;;;10.60;99.90;;;;;;4953966;29;20047;-51
2021/03/29 06:18:17;;;;;;;15.73;8.70;;;10.90;99.90;;;;;;4906119;29;20126;-51
2021/03/29 06:21:11;;;;;;;14.20;7.30;;;11.00;99.90;;;;;;4953046;29;20051;-50
2021/03/29 06:23:41;;;;;;;14.80;8.75;;;;;;;;;;4953820;29;20076;-52
2021/03/29 06:26:20;;;;;;;18.98;10.80;;;11.40;99.90;;;;;;4906603;29;20074;-52
2021/03/29 06:28:47;;;;;;;27.98;14.52;;;11.50;99.90;;;;;;4954006;29;20031;-50
2021/03/29 06:31:31;;;;;;;28.25;14.18;;;11.70;99.90;;;;;;4896508;29;20072;-50
2021/03/29 06:33:58;;;;;;;18.27;10.60;;;;;;;;;;4880092;29;20040;-50
2021/03/29 06:36:38;;;;;;;21.45;11.25;;;12.10;99.90;;;;;;4896473;29;20120;-50
2021/03/29 06:39:20;;;;;;;17.65;10.57;;;12.20;99.90;;;;;;4902420;28;20041;-50
2021/03/29 06:41:56;;;;;;;16.17;10.00;;;;;;;;;;4988340;28;20081;-49
2021/03/29 06:44:30;;;;;;;20.88;10.55;;;12.50;99.90;;;;;;4991957;28;20620;-50
2021/03/29 06:47:06;;;;;;;19.08;10.88;;;12.50;99.90;;;;;;4992357;28;20042;-49
2021/03/29 06:49:44;;;;;;;16.58;10.80;;;12.30;99.90;;;;;;4959484;28;20063;-49
2021/03/29 06:52:29;;;;;;;18.98;10.00;;;;;;;;;;4959338;28;20125;-50
2021/03/29 06:55:19;;;;;;;18.08;10.93;;;12.60;99.90;;;;;;4992070;28;20033;-50
2021/03/29 06:57:57;;;;;;;17.33;10.27;;;12.90;99.90;;;;;;4953051;29;20071;-49
2021/03/29 07:00:33;;;;;;;17.13;10.25;;;;;;;;;;4953324;29;20467;-50
2021/03/29 07:03:02;;;;;;;18.75;10.77;;;;;;;;;;5000690;28;20539;-49
2021/03/29 07:05:29;;;;;;;18.25;9.35;;;;;;;;;;5010427;28;20034;-49
2021/03/29 07:07:55;;;;;;;16.88;10.02;;;13.10;99.90;;;;;;4977196;28;20543;-49
2021/03/29 07:10:21;;;;;;;18.40;9.90;;;;;;;;;;5011513;28;20038;-49
2021/03/29 07:12:48;;;;;;;16.45;9.45;;;;;;;;;;4959084;28;20045;-49
2021/03/29 07:15:15;;;;;;;14.82;8.70;;;;;;;;;;4991788;28;20053;-49
2021/03/29 07:17:42;;;;;;;16.02;9.65;;;;;;;;;;4997238;28;20073;-49
2021/03/29 07:20:13;;;;;;;16.17;9.02;;;;;;;;;;5010593;28;20034;-49
2021/03/29 07:22:40;;;;;;;17.05;9.18;;;14.10;99.90;;;;;;4990807;28;20046;-49
2021/03/29 07:25:11;;;;;;;17.25;9.80;;;14.30;99.90;;;;;;4958876;28;20046;-49
2021/03/29 07:27:45;;;;;;;14.75;8.98;;;;;;;;;;4975051;28;20121;-49
2021/03/29 07:30:14;;;;;;;20.40;9.82;;;;;;;;;;4991682;28;20567;-49
2021/03/29 07:32:41;;;;;;;13.55;7.50;;;14.60;99.90;;;;;;4991715;28;20115;-49
2021/03/29 07:35:08;;;;;;;14.02;7.82;;;14.50;99.90;;;;;;4992598;28;20034;-49
2021/03/29 07:37:52;;;;;;;17.70;8.40;;;;;;;;;;4991549;28;20088;-49
2021/03/29 07:40:18;;;;;;;11.07;6.93;;;15.30;99.90;;;;;;5011277;28;20488;-50
2021/03/29 07:42:48;;;;;;;10.98;7.15;;;;;;;;;;5010830;28;20121;-50
2021/03/29 07:45:39;;;;;;;11.95;6.20;;;15.60;94.80;;;;;;5010913;28;20193;-50
2021/03/29 07:48:05;;;;;;;12.73;7.95;;;15.60;94.60;;;;;;4969428;28;20074;-47
2021/03/29 07:50:32;;;;;;;17.15;8.30;;;;;;;;;;4922996;28;20038;-46
2021/03/29 07:52:58;;;;;;;14.05;7.53;;;;;;;;;;4980331;28;20036;-48
2021/03/29 07:55:30;;;;;;;17.25;8.75;;;16.20;99.90;;;;;;5010947;28;20489;-48
2021/03/29 07:57:57;;;;;;;14.30;7.72;;;;;;;;;;5003838;28;20057;-48
2021/03/29 08:00:22;;;;;;;12.88;7.60;;;16.60;91.00;;;;;;5003728;28;20034;-48
2021/03/29 08:03:21;;;;;;;15.45;8.95;;;17.10;95.30;;;;;;5008657;28;20038;-48
2021/03/29 08:05:48;;;;;;;13.50;7.85;;;;;;;;;;5005437;28;20113;-48
2021/03/29 08:08:26;;;;;;;12.77;5.55;;;;;;;;;;5008864;28;20038;-48
2021/03/29 08:11:02;;;;;;;10.35;4.97;;;17.80;80.70;;;;;;4994776;28;20448;-49
2021/03/29 08:13:38;;;;;;;9.02;4.35;;;;;;;;;;4994068;28;20054;-48
2021/03/29 08:16:14;;;;;;;8.27;4.68;;;18.10;99.00;;;;;;4994556;28;20041;-49
2021/03/29 08:19:21;;;;;;;10.07;5.15;;;18.50;86.80;;;;;;5004173;28;20070;-48
2021/03/29 08:21:47;;;;;;;7.53;4.00;;;;;;;;;;4936872;29;20039;-48
2021/03/29 08:24:19;;;;;;;8.32;3.67;;;;;;;;;;4934610;29;20660;-50
2021/03/29 08:26:46;;;;;;;5.28;2.65;;;;;;;;;;4935951;29;20131;-50
2021/03/29 08:29:20;;;;;;;5.75;2.63;;;;;;;;;;4936006;29;20039;-47
2021/03/29 08:32:05;;;;;;;8.10;3.85;;;;;;;;;;4936844;29;20106;-48
2021/03/29 08:34:46;;;;;;;8.65;4.70;;;;;;;;;;4904576;29;20036;-49
2021/03/29 08:37:14;;;;;;;4.57;2.73;;;;;;;;;;4936499;29;20035;-49
2021/03/29 08:39:41;;;;;;;6.88;3.88;;;;;;;;;;4936639;29;20105;-47
2021/03/29 08:42:08;;;;;;;6.95;2.97;;;;;;;;;;4904576;29;20718;-49
2021/03/29 08:44:36;;;;;;;5.72;2.70;;;;;;;;;;4936524;29;20059;-50
2021/03/29 08:47:06;;;;;;;3.67;2.40;;;;;;;;;;4935658;29;20056;-50
2021/03/29 08:49:32;;;;;;;4.82;2.28;;;20.30;60.50;;;;;;4955366;29;20125;-46
2021/03/29 08:51:58;;;;;;;4.25;2.40;;;20.40;61.00;;;;;;4943554;28;20159;-48
2021/03/29 08:54:24;;;;;;;4.43;2.40;;;20.70;73.20;;;;;;5049177;28;20471;-48
2021/03/29 08:56:51;;;;;;;5.80;2.90;;;;;;;;;;5020798;28;20044;-48
2021/03/29 08:59:17;;;;;;;5.13;2.15;;;20.80;95.30;;;;;;5056183;28;20044;-49
2021/03/29 09:01:43;;;;;;;6.00;2.17;;;;;;;;;;5020596;28;20090;-46
2021/03/29 09:04:10;;;;;;;5.60;2.35;;;;;;;;;;5036805;28;20037;-44
2021/03/29 09:06:37;;;;;;;3.92;2.17;;;;;;;;;;5055525;28;20049;-46
2021/03/29 09:09:13;;;;;;;6.25;1.90;;;;;;;;;;5036987;28;20044;-47
2021/03/29 09:11:40;;;;;;;3.58;2.00;;;;;;;;;;5055417;28;20025;-47
2021/03/29 09:14:06;;;;;;;4.13;2.03;;;;;;;;;;5033303;28;20042;-45
2021/03/29 09:16:32;;;;;;;3.92;2.00;;;;;;;;;;5033459;28;20088;-45
2021/03/29 09:19:11;;;;;;;3.65;1.83;;;;;;;;;;5000096;28;20041;-50
2021/03/29 09:21:39;;;;;;;5.25;2.15;;;;;;;;;;5033248;28;20113;-51
2021/03/29 09:24:17;;;;;;;6.30;2.22;;;;;;;;;;5033249;28;20457;-52
2021/03/29 09:26:53;;;;;;;4.20;1.77;;;22.60;55.10;;;;;;4998549;28;20131;-53
2021/03/29 09:29:31;;;;;;;3.80;1.98;;;;;;;;;;5033324;28;20509;-51
2021/03/29 09:31:58;;;;;;;3.28;1.50;;;22.00;53.70;;;;;;5032342;28;20061;-51
2021/03/29 09:34:24;;;;;;;4.30;2.25;;;;;;;;;;5032291;28;20477;-51
2021/03/29 09:36:50;;;;;;;3.35;1.55;;;22.20;92.10;;;;;;5033496;28;20030;-50
2021/03/29 09:39:16;;;;;;;3.55;1.73;;;21.80;77.10;;;;;;4983883;28;20493;-51
2021/03/29 09:41:52;;;;;;;4.20;2.10;;;;;;;;;;4998808;28;20050;-49
2021/03/29 09:44:24;;;;;;;4.38;1.83;;;;;;;;;;5035179;28;20042;-50
2021/03/29 09:46:53;;;;;;;3.55;1.75;;;;;;;;;;5040860;28;20025;-48
2021/03/29 09:49:19;;;;;;;3.80;2.28;;;23.10;62.70;;;;;;5053220;28;20060;-48
2021/03/29 09:51:47;;;;;;;3.55;1.90;;;;;;;;;;5054371;28;20056;-48
2021/03/29 09:54:29;;;;;;;3.50;1.75;;;;;;;;;;5048048;28;20354;-48
2021/03/29 09:56:56;;;;;;;2.25;1.52;;;;;;;;;;5050952;28;20033;-46
2021/03/29 09:59:26;;;;;;;3.53;1.95;;;;;;;;;;5054418;28;20065;-47
2021/03/29 10:01:52;;;;;;;2.97;1.80;;;;;;;;;;5053460;28;20032;-45
2021/03/29 10:04:19;;;;;;;3.78;1.90;;;;;;;;;;5054222;28;20116;-49
2021/03/29 10:06:55;;;;;;;3.88;2.03;;;;;;;;;;5019814;28;20072;-45
2021/03/29 10:09:34;;;;;;;5.72;1.95;;;;;;;;;;5012242;28;20531;-45
2021/03/29 10:12:01;;;;;;;2.72;1.73;;;;;;;;;;5005643;28;20030;-44
2021/03/29 10:14:34;;;;;;;6.47;2.30;;;;;;;;;;4986322;28;20100;-44
2021/03/29 10:17:00;;;;;;;4.03;1.92;;;;;;;;;;4973103;28;20038;-44
2021/03/29 10:19:31;;;;;;;3.47;1.80;;;;;;;;;;5012127;28;20486;-44
2021/03/29 10:22:00;;;;;;;4.35;2.00;;;;;;;;;;5012406;28;20121;-45
2021/03/29 10:24:26;;;;;;;5.35;1.92;;;;;;;;;;5012164;28;20070;-45
2021/03/29 10:26:53;;;;;;;3.30;1.65;;;;;;;;;;5011447;28;20037;-45
2021/03/29 10:29:28;;;;;;;4.47;2.35;;;;;;;;;;5012118;28;20084;-45
2021/03/29 10:31:55;;;;;;;4.22;2.00;;;;;;;;;;5011537;28;20125;-47
2021/03/29 10:34:21;;;;;;;3.05;1.63;;;;;;;;;;5011978;28;20041;-44
2021/03/29 10:36:47;;;;;;;3.60;1.25;;;;;;;;;;4979362;28;20045;-45
2021/03/29 10:39:13;;;;;;;3.35;1.50;;;;;;;;;;5013879;28;20040;-46
2021/03/29 10:41:39;;;;;;;3.75;1.63;;;;;;;;;;5015271;28;20057;-46
2021/03/29 10:44:06;;;;;;;3.38;1.63;;;;;;;;;;4985603;28;20106;-46
2021/03/29 10:46:32;;;;;;;3.50;1.80;;;;;;;;;;5053969;28;20105;-46
2021/03/29 10:48:58;;;;;;;2.63;1.83;;;;;;;;;;5053620;28;20021;-46
2021/03/29 10:51:24;;;;;;;5.30;2.05;;;24.90;69.90;;;;;;5053795;28;20032;-46
2021/03/29 10:53:49;;;;;;;3.22;1.75;;;25.20;68.60;;;;;;5053681;28;20024;-46
2021/03/29 10:56:15;;;;;;;5.30;1.90;;;24.60;66.00;;;;;;5034724;28;20033;-46
2021/03/29 10:58:41;;;;;;;4.30;1.80;;;24.30;64.30;;;;;;5053821;28;20037;-46
2021/03/29 11:01:07;;;;;;;5.53;1.95;;;23.60;49.50;;;;;;5053702;28;20025;-46
2021/03/29 11:03:32;;;;;;;4.10;2.38;;;23.20;62.30;;;;;;5018181;28;20073;-46
2021/03/29 11:05:58;;;;;;;5.97;2.20;;;23.90;62.20;;;;;;5053545;28;20078;-46
2021/03/29 11:08:24;;;;;;;6.35;2.35;;;24.50;61.00;;;;;;5034808;28;20095;-46
2021/03/29 11:10:50;;;;;;;2.92;2.10;;;;;;;;;;4985370;28;20055;-46
2021/03/29 11:13:16;;;;;;;4.78;1.80;;;;;;;;;;5018393;28;20028;-46
2021/03/29 11:15:43;;;;;;;10.73;4.95;;;;;;;;;;5053386;28;20033;-45
2021/03/29 11:18:10;;;;;;;6.22;2.92;;;;;;;;;;5052864;28;20041;-46
2021/03/29 11:20:36;;;;;;;3.63;2.10;;;;;;;;;;5018971;28;20041;-46
2021/03/29 11:23:03;;;;;;;5.13;2.45;;;;;;;;;;5053370;28;20029;-46
2021/03/29 11:25:29;;;;;;;3.90;2.58;;;;;;;;;;5053082;28;20052;-46
2021/03/29 11:27:55;;;;;;;3.80;2.13;;;;;;;;;;5053398;28;20025;-46
2021/03/29 11:30:22;;;;;;;6.45;2.03;;;;;;;;;;5056584;28;20032;-47
2021/03/29 11:32:47;;;;;;;4.00;2.45;;;25.20;47.40;;;;;;5057413;28;20500;-46
2021/03/29 11:35:13;;;;;;;4.18;2.22;;;25.50;48.40;;;;;;5057931;28;20032;-46
2021/03/29 11:37:39;;;;;;;5.05;2.10;;;25.60;47.50;;;;;;5021938;28;20041;-46
2021/03/29 11:40:06;;;;;;;3.28;1.80;;;26.00;49.60;;;;;;5039255;28;20029;-47
2021/03/29 11:42:32;;;;;;;5.70;2.00;;;25.70;48.90;;;;;;4989176;28;20124;-46
2021/03/29 11:44:58;;;;;;;5.35;2.20;;;26.00;53.60;;;;;;5057209;28;20151;-46
2021/03/29 11:47:23;;;;;;;4.13;2.00;;;26.20;57.20;;;;;;5056935;28;20396;-46
2021/03/29 11:49:49;;;;;;;5.03;1.83;;;;;;;;;;5022139;28;20037;-45
2021/03/29 11:52:15;;;;;;;4.15;2.00;;;26.00;76.80;;;;;;5056941;28;20036;-47
2021/03/29 11:54:41;;;;;;;3.35;2.10;;;;;;;;;;5056974;28;20029;-46
2021/03/29 11:57:07;;;;;;;4.07;2.10;;;25.40;79.40;;;;;;5057045;28;20107;-46
2021/03/29 11:59:33;;;;;;;5.47;2.00;;;25.10;60.00;;;;;;5056905;28;20033;-46
2021/03/29 12:02:13;;;;;;;5.53;2.17;;;24.30;63.40;;;;;;5056761;28;20029;-46
2021/03/29 12:04:55;;;;;;;3.47;1.90;;;23.70;52.10;;;;;;5056903;28;20040;-46
2021/03/29 12:07:38;;;;;;;2.70;1.70;;;23.30;70.80;;;;;;5056852;28;20060;-46
2021/03/29 12:12:53;;;;;;;2.78;1.65;;;24.40;76.00;;;;;;5011501;28;20514;-45
2021/03/29 12:15:21;;;;;;;3.22;1.90;;;24.60;77.00;;;;;;5050757;28;20391;-45
2021/03/29 12:17:49;;;;;;;3.30;1.92;;;24.10;75.40;;;;;;5001175;28;20048;-46
2021/03/29 12:20:15;;;;;;;3.42;2.08;;;;;;;;;;5009829;28;20033;-46
2021/03/29 12:22:43;;;;;;;3.25;2.00;;;;;;;;;;4998100;28;20086;-46
2021/03/29 12:25:12;;;;;;;3.85;2.22;;;;;;;;;;5056092;28;20175;-46
2021/03/29 12:27:39;;;;;;;5.88;2.30;;;;;;;;;;5005023;28;20037;-47
2021/03/29 12:30:12;;;;;;;3.67;1.95;;;;;;;;;;5056179;28;20158;-46
2021/03/29 12:32:38;;;;;;;3.42;1.77;;;;;;;;;;5055958;28;20048;-45
2021/03/29 12:35:05;;;;;;;3.08;2.13;;;;;;;;;;5055974;28;20036;-46
2021/03/29 12:37:33;;;;;;;7.35;2.78;;;;;;;;;;5054830;28;20111;-46
2021/03/29 12:40:18;;;;;;;4.82;2.15;;;;;;;;;;5054256;28;20029;-46
2021/03/29 12:43:04;;;;;;;4.13;2.38;;;;;;;;;;5054629;28;20350;-46
2021/03/29 12:45:31;;;;;;;3.38;1.83;;;;;;;;;;5054402;28;20045;-46
2021/03/29 12:47:59;;;;;;;5.50;2.08;;;;;;;;;;5054816;28;20044;-46
2021/03/29 12:50:26;;;;;;;2.60;1.80;;;;;;;;;;5018915;28;20380;-46
2021/03/29 12:52:53;;;;;;;4.05;2.13;;;;;;;;;;5054326;28;20036;-46
2021/03/29 12:55:20;;;;;;;2.78;1.95;;;;;;;;;;5019912;28;20108;-46
2021/03/29 12:57:47;;;;;;;6.30;2.45;;;22.70;50.30;;;;;;5054575;28;20122;-46
2021/03/29 13:00:14;;;;;;;5.20;2.47;;;;;;;;;;5036446;28;20430;-46
2021/03/29 13:02:44;;;;;;;2.83;1.75;;;;;;;;;;5012057;28;20460;-46
2021/03/29 13:05:14;;;;;;;4.47;2.17;;;;;;;;;;5012236;28;20049;-46
2021/03/29 13:07:51;;;;;;;5.25;2.83;;;21.60;65.80;;;;;;5011895;28;20037;-46
2021/03/29 13:12:58;;;;;;;4.32;2.70;;;21.50;69.30;;;;;;5012181;28;20552;-46
2021/03/29 13:15:24;;;;;;;12.85;5.05;;;;;;;;;;5012019;28;20030;-46
2021/03/29 13:17:50;;;;;;;4.57;2.30;;;22.70;57.80;;;;;;5011598;28;20069;-47
2021/03/29 13:20:18;;;;;;;3.95;2.42;;;21.90;50.80;;;;;;4979298;28;20041;-46
2021/03/29 13:22:48;;;;;;;3.40;1.98;;;22.10;51.30;;;;;;5011252;28;20598;-47
2021/03/29 13:25:20;;;;;;;4.38;2.50;;;22.40;50.80;;;;;;4963053;28;20057;-47
2021/03/29 13:27:46;;;;;;;9.20;2.22;;;;;;;;;;5011838;28;20060;-46
2021/03/29 13:30:15;;;;;;;4.43;2.45;;;22.90;52.90;;;;;;4978713;28;20037;-47
2021/03/29 13:32:42;;;;;;;4.63;2.40;;;23.00;52.70;;;;;;4997069;28;20069;-47
2021/03/29 13:35:08;;;;;;;4.75;2.25;;;22.20;50.70;;;;;;5034048;28;20032;-46
2021/03/29 13:37:34;;;;;;;2.55;1.70;;;22.30;51.30;;;;;;5033713;28;20037;-47